createdAt,value
2018-07-11T00:00:26.342Z,101398.22
2018-07-11T00:01:31.920Z,101393.89
2018-07-11T00:02:37.394Z,101393.89
2018-07-11T00:03:45.585Z,101390.47
2018-07-11T00:04:51.214Z,101397.89
2018-07-11T00:05:56.781Z,101395.44
2018-07-11T00:07:02.313Z,101392.86
2018-07-11T00:08:07.797Z,101395.98
2018-07-11T00:09:13.258Z,101401.80
2018-07-11T00:10:19.600Z,101405.17
2018-07-11T00:11:25.018Z,101398.27
2018-07-11T00:12:30.485Z,101402.26
2018-07-11T00:13:35.917Z,101398.02
2018-07-11T00:14:41.385Z,101399.02
2018-07-11T00:15:46.877Z,101403.22
2018-07-11T00:17:24.026Z,101401.14
2018-07-11T00:18:30.027Z,101399.45
2018-07-11T00:19:36.664Z,101397.33
2018-07-11T00:20:42.146Z,101398.58
2018-07-11T00:21:47.852Z,101393.13
2018-07-11T00:22:53.407Z,101396.95
2018-07-11T00:23:59.017Z,101396.20
2018-07-11T00:25:04.599Z,101398.70
2018-07-11T00:26:11.141Z,101398.91
2018-07-11T00:27:16.698Z,101404.03
2018-07-11T00:28:22.306Z,101400.16
2018-07-11T00:29:27.969Z,101398.87
2018-07-11T00:30:33.487Z,101395.79
2018-07-11T00:31:39.021Z,101396.95
2018-07-11T00:32:44.508Z,101397.88
2018-07-11T00:33:50.057Z,101396.13
2018-07-11T00:34:55.624Z,101389.75
2018-07-11T00:36:01.193Z,101395.99
2018-07-11T00:37:07.121Z,101393.54
2018-07-11T00:38:12.662Z,101388.92
2018-07-11T00:39:18.276Z,101394.98
2018-07-11T00:40:23.835Z,101396.16
2018-07-11T00:41:29.423Z,101387.62
2018-07-11T00:42:35.021Z,101394.08
2018-07-11T00:43:40.530Z,101394.23
2018-07-11T00:44:46.101Z,101392.95
2018-07-11T00:45:53.348Z,101398.57
2018-07-11T00:46:58.930Z,101400.81
2018-07-11T00:48:04.879Z,101395.66
2018-07-11T00:49:10.523Z,101396.53
2018-07-11T00:50:16.090Z,101396.53
2018-07-11T00:51:21.650Z,101403.89
2018-07-11T00:52:27.296Z,101404.42
2018-07-11T00:53:35.977Z,101404.77
2018-07-11T00:54:41.553Z,101404.42
2018-07-11T00:55:47.602Z,101392.41
2018-07-11T00:56:53.142Z,101399.80
2018-07-11T00:58:10.087Z,101402.50
2018-07-11T00:59:23.090Z,101399.63
2018-07-11T01:00:28.733Z,101396.25
2018-07-11T01:01:34.785Z,101401.82
2018-07-11T01:02:40.658Z,101402.95
2018-07-11T01:03:55.872Z,101394.47
2018-07-11T01:05:01.468Z,101397.95
2018-07-11T01:06:07.182Z,101392.91
2018-07-11T01:07:12.774Z,101401.38
2018-07-11T01:08:18.812Z,101403.88
2018-07-11T01:09:24.407Z,101396.98
2018-07-11T01:10:30.017Z,101405.93
2018-07-11T01:11:36.882Z,101407.09
2018-07-11T01:12:42.395Z,101407.59
2018-07-11T01:13:48.945Z,101405.47
2018-07-11T01:14:54.522Z,101404.94
2018-07-11T01:16:00.336Z,101402.40
2018-07-11T01:17:10.266Z,101401.94
2018-07-11T01:18:17.767Z,101400.84
2018-07-11T01:19:23.618Z,101405.13
2018-07-11T01:20:29.141Z,101401.64
2018-07-11T01:21:35.458Z,101406.92
2018-07-11T01:22:40.892Z,101409.45
2018-07-11T01:23:46.334Z,101408.28
2018-07-11T01:24:51.812Z,101409.23
2018-07-11T01:25:57.726Z,101409.31
2018-07-11T01:27:03.190Z,101411.09
2018-07-11T01:28:09.517Z,101410.44
2018-07-11T01:29:15.013Z,101409.27
2018-07-11T01:30:20.444Z,101406.98
2018-07-11T01:31:26.473Z,101410.44
2018-07-11T01:32:31.986Z,101403.12
2018-07-11T01:33:37.444Z,101403.95
2018-07-11T01:34:42.914Z,101401.70
2018-07-11T01:35:48.333Z,101395.94
2018-07-11T01:36:53.811Z,101397.53
2018-07-11T01:37:59.430Z,101395.72
2018-07-11T01:39:05.209Z,101390.33
2018-07-11T01:40:10.706Z,101389.05
2018-07-11T01:41:16.397Z,101388.21
2018-07-11T01:42:21.922Z,101392.52
2018-07-11T01:43:27.469Z,101390.71
2018-07-11T01:44:33.435Z,101389.42
2018-07-11T01:45:38.976Z,101385.34
2018-07-11T01:46:48.928Z,101386.25
2018-07-11T01:47:54.405Z,101390.41
2018-07-11T01:48:59.970Z,101384.49
2018-07-11T01:50:05.556Z,101387.98
2018-07-11T01:51:11.783Z,101389.58
2018-07-11T01:52:34.133Z,101385.78
2018-07-11T01:53:39.702Z,101384.42
2018-07-11T01:54:45.318Z,101384.84
2018-07-11T01:55:50.831Z,101383.14
2018-07-11T01:56:56.407Z,101384.84
2018-07-11T01:58:01.873Z,101383.63
2018-07-11T01:59:07.352Z,101382.44
2018-07-11T02:00:12.878Z,101383.34
2018-07-11T02:01:18.399Z,101386.66
2018-07-11T02:02:26.325Z,101382.44
2018-07-11T02:03:31.970Z,101379.94
2018-07-11T02:04:40.725Z,101382.44
2018-07-11T02:05:46.257Z,101379.11
2018-07-11T02:06:51.806Z,101379.55
2018-07-11T02:07:57.841Z,101381.95
2018-07-11T02:09:03.446Z,101379.31
2018-07-11T02:10:09.053Z,101378.16
2018-07-11T02:11:14.633Z,101375.55
2018-07-11T02:12:20.148Z,101379.83
2018-07-11T02:13:26.669Z,101380.38
2018-07-11T02:14:32.212Z,101377.36
2018-07-11T02:15:37.761Z,101369.73
2018-07-11T02:16:43.361Z,101369.88
2018-07-11T02:17:48.909Z,101368.20
2018-07-11T02:18:54.511Z,101377.38
2018-07-11T02:20:00.158Z,101375.28
2018-07-11T02:21:07.093Z,101374.35
2018-07-11T02:22:13.237Z,101374.73
2018-07-11T02:23:18.850Z,101377.24
2018-07-11T02:24:25.549Z,101377.24
2018-07-11T02:25:31.428Z,101378.11
2018-07-11T02:26:37.094Z,101377.14
2018-07-11T02:27:42.658Z,101381.80
2018-07-11T02:28:48.640Z,101374.92
2018-07-11T02:29:54.149Z,101379.81
2018-07-11T02:30:59.765Z,101374.25
2018-07-11T02:32:05.181Z,101382.70
2018-07-11T02:33:10.819Z,101382.81
2018-07-11T02:34:16.421Z,101385.91
2018-07-11T02:35:21.917Z,101379.88
2018-07-11T02:36:27.398Z,101383.75
2018-07-11T02:37:33.004Z,101380.72
2018-07-11T02:38:38.499Z,101384.65
2018-07-11T02:39:43.937Z,101386.70
2018-07-11T02:40:49.412Z,101383.75
2018-07-11T02:41:54.843Z,101383.39
2018-07-11T02:43:00.371Z,101383.84
2018-07-11T02:44:06.179Z,101382.10
2018-07-11T02:45:11.728Z,101386.00
2018-07-11T02:46:17.285Z,101373.87
2018-07-11T02:47:27.879Z,101378.14
2018-07-11T02:48:33.477Z,101375.50
2018-07-11T02:49:38.993Z,101376.05
2018-07-11T02:50:44.590Z,101378.47
2018-07-11T02:51:50.130Z,101377.77
2018-07-11T02:52:55.657Z,101378.17
2018-07-11T02:54:01.198Z,101379.43
2018-07-11T02:55:06.894Z,101385.80
2018-07-11T02:56:12.461Z,101386.57
2018-07-11T02:57:18.024Z,101390.36
2018-07-11T02:58:23.605Z,101391.13
2018-07-11T02:59:29.090Z,101389.39
2018-07-11T03:00:34.622Z,101383.83
2018-07-11T03:01:40.084Z,101381.77
2018-07-11T03:02:45.625Z,101378.08
2018-07-11T03:03:51.100Z,101377.34
2018-07-11T03:04:56.618Z,101375.19
2018-07-11T03:06:02.138Z,101374.87
2018-07-11T03:07:09.389Z,101369.37
2018-07-11T03:08:16.619Z,101373.13
2018-07-11T03:09:22.109Z,101375.32
2018-07-11T03:10:27.649Z,101376.89
2018-07-11T03:11:33.148Z,101374.35
2018-07-11T03:12:38.727Z,101375.32
2018-07-11T03:13:44.240Z,101380.02
2018-07-11T03:14:52.312Z,101380.78
2018-07-11T03:15:57.785Z,101374.87
2018-07-11T03:17:03.250Z,101373.90
2018-07-11T03:18:08.848Z,101375.13
2018-07-11T03:19:14.347Z,101367.44
2018-07-11T03:20:19.947Z,101374.32
2018-07-11T03:21:25.506Z,101368.85
2018-07-11T03:22:31.055Z,101372.75
2018-07-11T03:23:36.561Z,101372.36
2018-07-11T03:24:42.536Z,101378.98
2018-07-11T03:25:48.155Z,101378.22
2018-07-11T03:26:54.024Z,101379.47
2018-07-11T03:27:59.451Z,101376.90
2018-07-11T03:29:04.935Z,101380.66
2018-07-11T03:30:10.506Z,101379.63
2018-07-11T03:31:16.044Z,101375.64
2018-07-11T03:32:21.548Z,101377.05
2018-07-11T03:33:27.029Z,101378.28
2018-07-11T03:34:32.582Z,101373.64
2018-07-11T03:35:38.059Z,101372.33
2018-07-11T03:36:43.573Z,101371.95
2018-07-11T03:37:49.115Z,101370.66
2018-07-11T03:38:54.680Z,101369.11
2018-07-11T03:40:00.181Z,101369.44
2018-07-11T03:41:05.658Z,101363.03
2018-07-11T03:42:11.222Z,101365.13
2018-07-11T03:43:16.666Z,101372.05
2018-07-11T03:44:22.152Z,101372.08
2018-07-11T03:45:27.693Z,101364.26
2018-07-11T03:46:33.209Z,101359.14
2018-07-11T03:47:39.052Z,101358.79
2018-07-11T03:48:44.517Z,101361.75
2018-07-11T03:49:49.941Z,101360.43
2018-07-11T03:50:55.513Z,101361.78
2018-07-11T03:52:01.037Z,101367.41
2018-07-11T03:53:06.638Z,101372.08
2018-07-11T03:54:12.080Z,101366.90
2018-07-11T03:55:17.538Z,101371.49
2018-07-11T03:56:23.154Z,101373.09
2018-07-11T03:57:28.590Z,101376.02
2018-07-11T03:58:34.057Z,101373.77
2018-07-11T03:59:40.557Z,101374.12
2018-07-11T04:00:46.090Z,101376.63
2018-07-11T04:01:51.617Z,101378.19
2018-07-11T04:02:57.605Z,101382.86
2018-07-11T04:04:03.089Z,101376.94
2018-07-11T04:05:08.590Z,101377.74
2018-07-11T04:06:14.007Z,101377.71
2018-07-11T04:07:19.249Z,101373.02
2018-07-11T04:08:24.620Z,101373.88
2018-07-11T04:09:30.100Z,101367.45
2018-07-11T04:10:35.542Z,101371.06
2018-07-11T04:11:40.974Z,101377.81
2018-07-11T04:12:46.501Z,101381.09
2018-07-11T04:13:52.044Z,101384.36
2018-07-11T04:14:57.517Z,101378.99
2018-07-11T04:16:03.025Z,101380.48
2018-07-11T04:17:08.468Z,101375.48
2018-07-11T04:18:21.154Z,101377.53
2018-07-11T04:19:26.595Z,101380.69
2018-07-11T04:20:32.018Z,101382.96
2018-07-11T04:21:37.819Z,101387.81
2018-07-11T04:22:43.279Z,101384.20
2018-07-11T04:23:48.898Z,101384.30
2018-07-11T04:24:54.382Z,101383.66
2018-07-11T04:26:00.262Z,101382.50
2018-07-11T04:27:08.508Z,101384.05
2018-07-11T04:28:14.030Z,101379.23
2018-07-11T04:29:19.656Z,101376.44
2018-07-11T04:30:25.210Z,101375.44
2018-07-11T04:31:30.750Z,101384.17
2018-07-11T04:32:36.618Z,101381.02
2018-07-11T04:33:42.194Z,101383.34
2018-07-11T04:34:47.743Z,101380.86
2018-07-11T04:35:54.351Z,101379.64
2018-07-11T04:37:00.034Z,101383.02
2018-07-11T04:38:05.834Z,101381.68
2018-07-11T04:39:11.720Z,101378.95
2018-07-11T04:40:17.268Z,101380.53
2018-07-11T04:41:22.953Z,101380.03
2018-07-11T04:42:28.541Z,101376.66
2018-07-11T04:43:34.290Z,101373.70
2018-07-11T04:44:39.844Z,101375.33
2018-07-11T04:45:46.847Z,101377.31
2018-07-11T04:46:52.390Z,101379.85
2018-07-11T04:47:57.886Z,101378.89
2018-07-11T04:49:03.733Z,101373.31
2018-07-11T04:50:09.286Z,101378.34
2018-07-11T04:51:14.854Z,101375.11
2018-07-11T04:52:20.502Z,101377.88
2018-07-11T04:53:28.626Z,101380.64
2018-07-11T04:54:34.229Z,101381.71
2018-07-11T04:55:42.702Z,101385.64
2018-07-11T04:56:48.455Z,101383.28
2018-07-11T04:57:53.894Z,101383.88
2018-07-11T04:58:59.407Z,101385.80
2018-07-11T05:00:04.892Z,101391.34
2018-07-11T05:01:10.754Z,101387.74
2018-07-11T05:02:16.293Z,101387.59
2018-07-11T05:03:21.908Z,101396.87
2018-07-11T05:04:27.701Z,101391.19
2018-07-11T05:05:33.184Z,101393.45
2018-07-11T05:06:38.646Z,101389.84
2018-07-11T05:07:44.041Z,101389.44
2018-07-11T05:08:49.473Z,101390.50
2018-07-11T05:09:54.873Z,101393.95
2018-07-11T05:11:00.390Z,101396.64
2018-07-11T05:12:05.861Z,101398.63
2018-07-11T05:13:11.326Z,101401.16
2018-07-11T05:14:16.777Z,101396.92
2018-07-11T05:15:22.208Z,101397.10
2018-07-11T05:16:27.714Z,101399.61
2018-07-11T05:17:33.666Z,101397.20
2018-07-11T05:18:39.080Z,101401.03
2018-07-11T05:19:44.605Z,101397.83
2018-07-11T05:20:50.053Z,101396.29
2018-07-11T05:21:55.541Z,101395.85
2018-07-11T05:23:01.378Z,101392.17
2018-07-11T05:24:06.806Z,101398.95
2018-07-11T05:25:12.250Z,101400.29
2018-07-11T05:26:17.685Z,101398.25
2018-07-11T05:27:23.105Z,101394.89
2018-07-11T05:28:28.545Z,101392.33
2018-07-11T05:29:34.014Z,101389.95
2018-07-11T05:30:39.491Z,101394.05
2018-07-11T05:31:44.922Z,101389.17
2018-07-11T05:32:50.358Z,101393.64
2018-07-11T05:33:55.798Z,101396.02
2018-07-11T05:35:01.209Z,101395.30
2018-07-11T05:36:06.611Z,101393.67
2018-07-11T05:37:12.154Z,101394.72
2018-07-11T05:38:17.574Z,101397.86
2018-07-11T05:39:22.994Z,101390.58
2018-07-11T05:40:28.436Z,101391.38
2018-07-11T05:41:33.942Z,101394.95
2018-07-11T05:42:39.397Z,101393.45
2018-07-11T05:43:44.838Z,101392.82
2018-07-11T05:44:50.278Z,101396.96
2018-07-11T05:45:55.724Z,101399.86
2018-07-11T05:47:06.674Z,101400.87
2018-07-11T05:48:12.280Z,101396.89
2018-07-11T05:49:17.786Z,101403.13
2018-07-11T05:50:23.250Z,101401.19
2018-07-11T05:51:28.657Z,101403.14
2018-07-11T05:52:34.104Z,101402.03
2018-07-11T05:53:39.649Z,101401.57
2018-07-11T05:54:45.087Z,101401.36
2018-07-11T05:55:50.599Z,101402.47
2018-07-11T05:56:55.991Z,101407.38
2018-07-11T05:58:01.436Z,101406.80
2018-07-11T05:59:07.076Z,101396.64
2018-07-11T06:00:12.870Z,101398.42
2018-07-11T06:01:18.379Z,101402.02
2018-07-11T06:02:24.264Z,101401.95
2018-07-11T06:03:29.706Z,101398.30
2018-07-11T06:04:35.184Z,101402.50
2018-07-11T06:05:40.285Z,101405.09
2018-07-11T06:06:45.632Z,101406.20
2018-07-11T06:07:51.210Z,101401.94
2018-07-11T06:08:56.764Z,101403.05
2018-07-11T06:10:02.266Z,101400.17
2018-07-11T06:11:21.171Z,101406.59
2018-07-11T06:12:26.638Z,101403.20
2018-07-11T06:13:32.105Z,101407.50
2018-07-11T06:14:37.595Z,101404.08
2018-07-11T06:15:43.046Z,101410.09
2018-07-11T06:16:48.478Z,101408.61
2018-07-11T06:17:53.975Z,101415.12
2018-07-11T06:18:59.445Z,101411.14
2018-07-11T06:20:04.967Z,101413.48
2018-07-11T06:21:10.396Z,101418.86
2018-07-11T06:22:15.810Z,101424.63
2018-07-11T06:23:21.256Z,101423.86
2018-07-11T06:24:26.792Z,101423.98
2018-07-11T06:25:32.306Z,101423.44
2018-07-11T06:26:37.753Z,101423.80
2018-07-11T06:27:43.141Z,101423.31
2018-07-11T06:28:48.790Z,101422.81
2018-07-11T06:29:54.304Z,101418.95
2018-07-11T06:30:59.781Z,101424.22
2018-07-11T06:32:05.686Z,101426.18
2018-07-11T06:33:11.118Z,101435.53
2018-07-11T06:34:16.607Z,101433.75
2018-07-11T06:35:22.066Z,101430.88
2018-07-11T06:36:27.537Z,101430.23
2018-07-11T06:37:33.310Z,101439.84
2018-07-11T06:38:39.210Z,101430.95
2018-07-11T06:39:44.642Z,101429.52
2018-07-11T06:40:50.470Z,101428.41
2018-07-11T06:41:56.078Z,101431.47
2018-07-11T06:43:01.548Z,101427.48
2018-07-11T06:44:07.059Z,101425.16
2018-07-11T06:45:12.513Z,101424.09
2018-07-11T06:46:18.027Z,101423.04
2018-07-11T06:47:27.553Z,101420.25
2018-07-11T06:48:33.086Z,101419.27
2018-07-11T06:49:38.536Z,101421.16
2018-07-11T06:50:44.133Z,101417.44
2018-07-11T06:51:49.589Z,101417.81
2018-07-11T06:52:55.065Z,101417.97
2018-07-11T06:54:00.537Z,101410.46
2018-07-11T06:55:06.145Z,101415.58
2018-07-11T06:56:11.640Z,101404.36
2018-07-11T06:57:17.075Z,101411.91
2018-07-11T06:58:22.651Z,101406.16
2018-07-11T06:59:28.126Z,101403.20
2018-07-11T07:00:33.553Z,101402.84
2018-07-11T07:01:39.310Z,101402.80
2018-07-11T07:02:44.729Z,101398.00
2018-07-11T07:03:50.200Z,101400.45
2018-07-11T07:04:55.669Z,101396.19
2018-07-11T07:06:01.154Z,101402.16
2018-07-11T07:07:06.708Z,101396.44
2018-07-11T07:08:12.294Z,101395.80
2018-07-11T07:09:18.200Z,101396.58
2018-07-11T07:10:23.741Z,101398.89
2018-07-11T07:11:29.162Z,101394.41
2018-07-11T07:12:34.613Z,101394.38
2018-07-11T07:13:40.101Z,101396.03
2018-07-11T07:14:45.653Z,101400.11
2018-07-11T07:15:51.153Z,101397.75
2018-07-11T07:16:56.595Z,101401.75
2018-07-11T07:18:02.036Z,101406.48
2018-07-11T07:19:07.458Z,101397.86
2018-07-11T07:20:13.102Z,101398.20
2018-07-11T07:21:18.933Z,101397.67
2018-07-11T07:22:24.426Z,101399.61
2018-07-11T07:23:29.973Z,101395.28
2018-07-11T07:24:35.394Z,101393.95
2018-07-11T07:25:40.913Z,101396.81
2018-07-11T07:26:46.432Z,101388.50
2018-07-11T07:27:52.048Z,101383.61
2018-07-11T07:28:57.565Z,101382.67
2018-07-11T07:30:03.105Z,101385.61
2018-07-11T07:31:08.557Z,101386.14
2018-07-11T07:32:14.021Z,101385.11
2018-07-11T07:33:19.510Z,101387.73
2018-07-11T07:34:24.993Z,101388.76
2018-07-11T07:35:30.410Z,101386.86
2018-07-11T07:36:35.834Z,101385.22
2018-07-11T07:37:41.339Z,101388.58
2018-07-11T07:38:46.901Z,101382.31
2018-07-11T07:39:52.365Z,101388.06
2018-07-11T07:40:57.845Z,101388.75
2018-07-11T07:42:03.395Z,101386.78
2018-07-11T07:43:08.810Z,101384.78
2018-07-11T07:44:14.383Z,101394.62
2018-07-11T07:45:19.914Z,101388.89
2018-07-11T07:46:25.428Z,101389.05
2018-07-11T07:47:36.020Z,101393.02
2018-07-11T07:48:41.705Z,101383.48
2018-07-11T07:49:47.285Z,101384.85
2018-07-11T07:50:52.857Z,101388.96
2018-07-11T07:51:58.789Z,101380.92
2018-07-11T07:53:04.286Z,101385.08
2018-07-11T07:54:09.857Z,101385.59
2018-07-11T07:55:15.933Z,101378.66
2018-07-11T07:56:21.477Z,101377.14
2018-07-11T07:57:27.969Z,101377.30
2018-07-11T07:58:33.558Z,101375.14
2018-07-11T07:59:39.097Z,101376.45
2018-07-11T08:00:44.585Z,101370.34
2018-07-11T08:01:50.146Z,101378.83
2018-07-11T08:02:55.690Z,101366.52
2018-07-11T08:04:01.240Z,101368.10
2018-07-11T08:05:08.625Z,101372.64
2018-07-11T08:06:14.204Z,101371.97
2018-07-11T08:07:19.751Z,101370.86
2018-07-11T08:08:25.161Z,101375.27
2018-07-11T08:09:30.590Z,101368.91
2018-07-11T08:10:36.037Z,101377.33
2018-07-11T08:11:41.662Z,101375.00
2018-07-11T08:12:47.101Z,101375.95
2018-07-11T08:13:52.798Z,101379.30
2018-07-11T08:14:58.431Z,101380.28
2018-07-11T08:16:03.878Z,101376.09
2018-07-11T08:17:09.426Z,101375.34
2018-07-11T08:18:14.538Z,101372.34
2018-07-11T08:19:19.996Z,101373.05
2018-07-11T08:20:25.443Z,101374.00
2018-07-11T08:21:30.940Z,101377.23
2018-07-11T08:23:22.537Z,101369.62
2018-07-11T08:24:44.841Z,101369.88
2018-07-11T08:26:07.369Z,101376.86
2018-07-11T08:28:00.925Z,101372.29
2018-07-11T08:31:25.942Z,101377.72
2018-07-11T08:32:54.291Z,101371.77
2018-07-11T08:37:21.912Z,101377.42
2018-07-11T08:38:45.171Z,101376.05
2018-07-11T08:42:10.929Z,101383.70
2018-07-11T08:45:35.749Z,101380.27
2018-07-11T08:46:57.469Z,101383.55
2018-07-11T08:48:30.713Z,101382.11
2018-07-11T08:50:04.084Z,101380.89
2018-07-11T08:53:52.201Z,101381.72
2018-07-11T08:56:15.670Z,101375.23
2018-07-11T08:59:59.773Z,101382.58
2018-07-11T09:01:24.540Z,101377.55
2018-07-11T09:03:50.781Z,101372.52
2018-07-11T09:05:11.958Z,101379.59
2018-07-11T09:08:44.344Z,101372.22
2018-07-11T09:10:05.590Z,101380.91
2018-07-11T09:12:12.596Z,101377.38
2018-07-11T09:13:34.953Z,101375.80
2018-07-11T09:16:01.156Z,101371.06
2018-07-11T09:17:23.518Z,101372.33
2018-07-11T09:21:21.625Z,101368.69
2018-07-11T09:22:44.774Z,101367.66
2018-07-11T09:24:37.142Z,101367.55
2018-07-11T09:25:42.621Z,101370.70
2018-07-11T09:26:48.210Z,101368.77
2018-07-11T09:27:53.697Z,101364.03
2018-07-11T09:28:59.240Z,101366.35
2018-07-11T09:30:04.752Z,101360.40
2018-07-11T09:31:10.226Z,101357.05
2018-07-11T09:32:16.094Z,101357.84
2018-07-11T09:33:21.690Z,101355.86
2018-07-11T09:34:27.105Z,101352.61
2018-07-11T09:35:32.659Z,101357.72
2018-07-11T09:36:38.201Z,101355.36
2018-07-11T09:37:43.788Z,101358.17
2018-07-11T09:38:49.262Z,101352.20
2018-07-11T09:39:54.747Z,101348.95
2018-07-11T09:40:59.908Z,101347.45
2018-07-11T09:42:05.506Z,101345.80
2018-07-11T09:43:11.176Z,101346.93
2018-07-11T09:44:16.907Z,101340.68
2018-07-11T09:45:22.659Z,101347.69
2018-07-11T09:46:28.133Z,101341.99
2018-07-11T09:47:33.790Z,101344.21
2018-07-11T09:48:39.325Z,101340.95
2018-07-11T09:49:44.853Z,101338.11
2018-07-11T09:50:50.563Z,101332.48
2018-07-11T09:51:56.606Z,101341.06
2018-07-11T09:53:02.118Z,101334.92
2018-07-11T09:54:07.870Z,101335.73
2018-07-11T09:55:13.725Z,101338.35
2018-07-11T09:56:19.295Z,101340.88
2018-07-11T09:57:26.578Z,101333.52
2018-07-11T09:58:32.788Z,101333.52
2018-07-11T09:59:38.863Z,101328.01
2018-07-11T10:00:49.716Z,101329.61
2018-07-11T10:01:55.250Z,101330.35
2018-07-11T10:03:00.782Z,101329.94
2018-07-11T10:04:06.359Z,101328.14
2018-07-11T10:05:11.918Z,101336.19
2018-07-11T10:06:17.457Z,101331.38
2018-07-11T10:07:24.307Z,101335.37
2018-07-11T10:08:29.783Z,101333.13
2018-07-11T10:09:35.306Z,101332.68
2018-07-11T10:10:40.804Z,101333.42
2018-07-11T10:11:46.293Z,101327.98
2018-07-11T10:12:51.797Z,101324.36
2018-07-11T10:13:57.260Z,101333.87
2018-07-11T10:15:02.762Z,101325.56
2018-07-11T10:16:08.305Z,101327.34
2018-07-11T10:17:13.827Z,101326.48
2018-07-11T10:18:19.232Z,101320.52
2018-07-11T10:19:24.680Z,101329.95
2018-07-11T10:20:30.245Z,101329.21
2018-07-11T10:21:35.936Z,101326.58
2018-07-11T10:22:41.590Z,101324.54
2018-07-11T10:23:47.090Z,101319.33
2018-07-11T10:24:52.607Z,101317.26
2018-07-11T10:25:58.106Z,101313.34
2018-07-11T10:27:03.582Z,101309.65
2018-07-11T10:28:18.781Z,101308.45
2018-07-11T10:29:24.271Z,101307.02
2018-07-11T10:30:29.711Z,101306.58
2018-07-11T10:31:35.183Z,101301.72
2018-07-11T10:32:40.717Z,101304.89
2018-07-11T10:33:46.202Z,101298.10
2018-07-11T10:34:51.697Z,101297.14
2018-07-11T10:35:57.158Z,101297.41
2018-07-11T10:37:02.817Z,101291.33
2018-07-11T10:38:08.569Z,101293.99
2018-07-11T10:39:14.455Z,101286.78
2018-07-11T10:40:20.040Z,101296.90
2018-07-11T10:41:25.252Z,101294.33
2018-07-11T10:42:31.026Z,101287.20
2018-07-11T10:43:36.580Z,101286.50
2018-07-11T10:44:42.109Z,101289.91
2018-07-11T10:45:47.573Z,101284.50
2018-07-11T10:46:57.117Z,101286.62
2018-07-11T10:48:02.699Z,101286.75
2018-07-11T10:49:08.219Z,101288.06
2018-07-11T10:50:13.761Z,101297.27
2018-07-11T10:51:19.359Z,101296.29
2018-07-11T10:52:24.857Z,101295.55
2018-07-11T10:53:30.734Z,101283.48
2018-07-11T10:54:36.240Z,101280.82
2018-07-11T10:55:41.781Z,101282.97
2018-07-11T10:56:47.351Z,101281.18
2018-07-11T10:57:52.976Z,101277.28
2018-07-11T10:58:58.421Z,101280.36
2018-07-11T11:00:04.245Z,101276.78
2018-07-11T11:01:09.708Z,101277.61
2018-07-11T11:02:21.819Z,101288.02
2018-07-11T11:03:29.454Z,101277.89
2018-07-11T11:04:34.935Z,101273.86
2018-07-11T11:05:40.494Z,101281.27
2018-07-11T11:06:45.982Z,101277.99
2018-07-11T11:07:52.472Z,101286.00
2018-07-11T11:08:57.890Z,101282.73
2018-07-11T11:10:03.467Z,101281.37
2018-07-11T11:11:10.078Z,101278.15
2018-07-11T11:12:15.661Z,101272.42
2018-07-11T11:13:21.898Z,101276.41
2018-07-11T11:14:27.425Z,101279.30
2018-07-11T11:15:32.869Z,101270.72
2018-07-11T11:16:39.024Z,101272.75
2018-07-11T11:17:44.526Z,101276.05
2018-07-11T11:18:50.083Z,101272.38
2018-07-11T11:19:55.571Z,101261.28
2018-07-11T11:21:01.183Z,101271.11
2018-07-11T11:22:06.755Z,101265.44
2018-07-11T11:23:12.173Z,101262.45
2018-07-11T11:24:17.687Z,101266.52
2018-07-11T11:25:23.159Z,101265.27
2018-07-11T11:26:28.572Z,101261.66
2018-07-11T11:27:34.075Z,101263.83
2018-07-11T11:28:39.534Z,101268.96
2018-07-11T11:29:44.993Z,101267.30
2018-07-11T11:30:50.513Z,101266.56
2018-07-11T11:31:56.006Z,101267.86
2018-07-11T11:33:01.503Z,101263.30
2018-07-11T11:34:06.933Z,101267.31
2018-07-11T11:35:12.483Z,101265.98
2018-07-11T11:36:18.057Z,101262.65
2018-07-11T11:37:23.547Z,101262.77
2018-07-11T11:38:29.050Z,101260.06
2018-07-11T11:39:34.527Z,101260.03
2018-07-11T11:40:40.034Z,101257.12
2018-07-11T11:41:46.098Z,101258.26
2018-07-11T11:42:51.615Z,101260.61
2018-07-11T11:43:57.081Z,101261.83
2018-07-11T11:45:02.625Z,101260.69
2018-07-11T11:46:08.510Z,101260.52
2018-07-11T11:47:14.032Z,101259.01
2018-07-11T11:48:19.561Z,101260.53
2018-07-11T11:49:25.197Z,101257.36
2018-07-11T11:50:31.091Z,101262.49
2018-07-11T11:51:36.682Z,101267.34
2018-07-11T11:52:42.194Z,101264.61
2018-07-11T11:53:47.676Z,101271.05
2018-07-11T11:54:53.775Z,101260.73
2018-07-11T11:55:59.274Z,101263.53
2018-07-11T11:57:05.005Z,101259.79
2018-07-11T11:58:10.886Z,101260.53
2018-07-11T11:59:16.318Z,101260.83
2018-07-11T12:00:21.798Z,101264.36
2018-07-11T12:01:27.243Z,101256.72
2018-07-11T12:02:32.709Z,101261.58
2018-07-11T12:03:38.608Z,101259.41
2018-07-11T12:04:44.066Z,101262.97
2018-07-11T12:05:49.523Z,101261.02
2018-07-11T12:06:54.965Z,101265.19
2018-07-11T12:08:00.401Z,101257.27
2018-07-11T12:09:05.748Z,101257.09
2018-07-11T12:10:11.101Z,101255.48
2018-07-11T12:11:16.589Z,101254.66
2018-07-11T12:12:22.121Z,101254.09
2018-07-11T12:13:28.223Z,101254.46
2018-07-11T12:14:35.404Z,101253.71
2018-07-11T12:15:40.867Z,101255.09
2018-07-11T12:16:46.729Z,101251.73
2018-07-11T12:17:52.485Z,101252.78
2018-07-11T12:18:58.274Z,101257.98
2018-07-11T12:20:04.165Z,101258.55
2018-07-11T12:21:09.600Z,101257.34
2018-07-11T12:22:23.885Z,101253.34
2018-07-11T12:23:29.850Z,101253.16
2018-07-11T12:24:35.534Z,101257.33
2018-07-11T12:25:56.549Z,101257.42
2018-07-11T12:27:02.402Z,101251.77
2018-07-11T12:28:07.872Z,101248.49
2018-07-11T12:29:13.341Z,101251.95
2018-07-11T12:30:18.814Z,101246.87
2018-07-11T12:31:24.308Z,101246.52
2018-07-11T12:32:29.806Z,101245.76
2018-07-11T12:33:35.447Z,101239.05
2018-07-11T12:34:40.934Z,101243.88
2018-07-11T12:35:46.886Z,101239.05
2018-07-11T12:36:54.873Z,101243.61
2018-07-11T12:38:00.533Z,101250.02
2018-07-11T12:39:06.081Z,101244.39
2018-07-11T12:40:11.360Z,101251.63
2018-07-11T12:41:16.961Z,101250.16
2018-07-11T12:42:22.445Z,101240.92
2018-07-11T12:43:28.350Z,101240.73
2018-07-11T12:44:33.874Z,101244.17
2018-07-11T12:45:39.373Z,101240.83
2018-07-11T12:46:45.710Z,101246.69
2018-07-11T12:47:56.105Z,101243.22
2018-07-11T12:49:06.545Z,101244.30
2018-07-11T12:50:12.109Z,101237.03
2018-07-11T12:51:17.546Z,101238.72
2018-07-11T12:52:23.118Z,101237.19
2018-07-11T12:53:29.173Z,101238.66
2018-07-11T12:54:34.683Z,101237.71
2018-07-11T12:55:40.175Z,101240.00
2018-07-11T12:56:45.704Z,101232.86
2018-07-11T12:57:51.222Z,101241.78
2018-07-11T12:58:57.438Z,101240.58
2018-07-11T13:00:02.992Z,101239.61
2018-07-11T13:01:08.813Z,101230.03
2018-07-11T13:02:14.693Z,101232.92
2018-07-11T13:03:20.242Z,101239.41
2018-07-11T13:04:25.782Z,101239.82